sensor_id;sensor_type;location;lat;lon;timestamp;temperature;humidity
14551;DHT22;7362;50.956;4.184;2022-09-20T00:02:08;13.00;99.90
14551;DHT22;7362;50.956;4.184;2022-09-20T00:04:33;13.00;99.90
14551;DHT22;7362;50.956;4.184;2022-09-20T00:06:59;12.90;99.90
14551;DHT22;7362;50.956;4.184;2022-09-20T00:09:25;12.90;99.90
14551;DHT22;7362;50.956;4.184;2022-09-20T00:11:50;12.80;99.90
14551;DHT22;7362;50.956;4.184;2022-09-20T00:14:16;12.70;99.90
14551;DHT22;7362;50.956;4.184;2022-09-20T00:16:42;12.60;99.90
14551;DHT22;7362;50.956;4.184;2022-09-20T00:19:17;12.50;99.90
14551;DHT22;7362;50.956;4.184;2022-09-20T00:21:43;12.50;99.90
14551;DHT22;7362;50.956;4.184;2022-09-20T00:24:09;12.50;99.90
14551;DHT22;7362;50.956;4.184;2022-09-20T00:26:36;12.50;99.90
14551;DHT22;7362;50.956;4.184;2022-09-20T00:29:03;12.50;99.90
14551;DHT22;7362;50.956;4.184;2022-09-20T00:31:29;12.50;99.90
14551;DHT22;7362;50.956;4.184;2022-09-20T00:33:56;12.50;99.90
14551;DHT22;7362;50.956;4.184;2022-09-20T00:36:40;12.50;99.90
14551;DHT22;7362;50.956;4.184;2022-09-20T00:39:10;12.40;99.90
14551;DHT22;7362;50.956;4.184;2022-09-20T00:41:36;12.40;99.90
14551;DHT22;7362;50.956;4.184;2022-09-20T00:44:41;12.30;99.90
14551;DHT22;7362;50.956;4.184;2022-09-20T00:49:45;12.20;99.90
14551;DHT22;7362;50.956;4.184;2022-09-20T00:52:12;12.20;99.90
14551;DHT22;7362;50.956;4.184;2022-09-20T00:54:37;12.20;99.90
14551;DHT22;7362;50.956;4.184;2022-09-20T00:57:04;12.20;99.90
14551;DHT22;7362;50.956;4.184;2022-09-20T00:59:36;12.10;99.90
14551;DHT22;7362;50.956;4.184;2022-09-20T01:02:27;12.20;99.90
14551;DHT22;7362;50.956;4.184;2022-09-20T01:04:59;12.10;99.90
14551;DHT22;7362;50.956;4.184;2022-09-20T01:07:25;12.10;99.90
14551;DHT22;7362;50.956;4.184;2022-09-20T01:09:51;12.20;99.90
14551;DHT22;7362;50.956;4.184;2022-09-20T01:12:19;12.00;99.90
14551;DHT22;7362;50.956;4.184;2022-09-20T01:14:49;12.10;99.90
14551;DHT22;7362;50.956;4.184;2022-09-20T01:17:17;12.00;99.90
14551;DHT22;7362;50.956;4.184;2022-09-20T01:20:14;12.10;99.90
14551;DHT22;7362;50.956;4.184;2022-09-20T01:28:22;11.90;99.90
14551;DHT22;7362;50.956;4.184;2022-09-20T01:33:52;11.90;99.90
14551;DHT22;7362;50.956;4.184;2022-09-20T01:36:24;11.90;99.90
14551;DHT22;7362;50.956;4.184;2022-09-20T01:41:57;11.80;99.90
14551;DHT22;7362;50.956;4.184;2022-09-20T01:47:17;11.80;99.90
14551;DHT22;7362;50.956;4.184;2022-09-20T02:24:49;11.90;99.90
14551;DHT22;7362;50.956;4.184;2022-09-20T02:27:44;11.90;99.90
14551;DHT22;7362;50.956;4.184;2022-09-20T02:39:01;11.90;99.90
14551;DHT22;7362;50.956;4.184;2022-09-20T02:47:05;12.00;99.90
14551;DHT22;7362;50.956;4.184;2022-09-20T02:55:42;12.00;99.90
14551;DHT22;7362;50.956;4.184;2022-09-20T03:04:10;12.10;99.90
14551;DHT22;7362;50.956;4.184;2022-09-20T03:07:00;12.10;99.90
14551;DHT22;7362;50.956;4.184;2022-09-20T03:14:58;12.10;99.90
14551;DHT22;7362;50.956;4.184;2022-09-20T03:46:19;12.30;99.90
14551;DHT22;7362;50.956;4.184;2022-09-20T03:51:43;12.20;99.90
14551;DHT22;7362;50.956;4.184;2022-09-20T04:05:18;12.20;99.90
14551;DHT22;7362;50.956;4.184;2022-09-20T04:07:54;12.10;99.90
14551;DHT22;7362;50.956;4.184;2022-09-20T04:21:12;12.00;99.90
14551;DHT22;7362;50.956;4.184;2022-09-20T04:33:49;11.70;99.90
14551;DHT22;7362;50.956;4.184;2022-09-20T04:39:55;11.50;99.90
14551;DHT22;7362;50.956;4.184;2022-09-20T04:51:40;11.40;99.90
14551;DHT22;7362;50.956;4.184;2022-09-20T05:21:02;11.00;99.90
14551;DHT22;7362;50.956;4.184;2022-09-20T05:30:35;11.30;99.90
14551;DHT22;7362;50.956;4.184;2022-09-20T05:50:28;11.60;99.90
14551;DHT22;7362;50.956;4.184;2022-09-20T05:53:45;11.60;99.90
14551;DHT22;7362;50.956;4.184;2022-09-20T05:56:41;11.60;99.90
14551;DHT22;7362;50.956;4.184;2022-09-20T05:59:29;11.40;99.90
14551;DHT22;7362;50.956;4.184;2022-09-20T06:11:13;11.50;99.90
14551;DHT22;7362;50.956;4.184;2022-09-20T06:16:39;11.50;99.90
14551;DHT22;7362;50.956;4.184;2022-09-20T06:21:55;11.50;99.90
14551;DHT22;7362;50.956;4.184;2022-09-20T06:24:36;11.50;99.90
14551;DHT22;7362;50.956;4.184;2022-09-20T06:27:09;11.50;99.90
14551;DHT22;7362;50.956;4.184;2022-09-20T06:29:41;11.50;99.90
14551;DHT22;7362;50.956;4.184;2022-09-20T06:32:10;11.50;99.90
14551;DHT22;7362;50.956;4.184;2022-09-20T06:34:36;11.60;99.90
14551;DHT22;7362;50.956;4.184;2022-09-20T06:37:19;11.50;99.90
14551;DHT22;7362;50.956;4.184;2022-09-20T06:40:38;11.60;99.90
14551;DHT22;7362;50.956;4.184;2022-09-20T06:43:46;11.60;99.90
14551;DHT22;7362;50.956;4.184;2022-09-20T06:46:15;11.70;99.90
14551;DHT22;7362;50.956;4.184;2022-09-20T06:48:41;11.70;99.90
14551;DHT22;7362;50.956;4.184;2022-09-20T06:51:09;11.80;99.90
14551;DHT22;7362;50.956;4.184;2022-09-20T06:53:37;11.80;99.90
14551;DHT22;7362;50.956;4.184;2022-09-20T06:56:26;11.90;99.90
14551;DHT22;7362;50.956;4.184;2022-09-20T06:58:53;11.70;99.90
14551;DHT22;7362;50.956;4.184;2022-09-20T07:01:19;11.60;99.90
14551;DHT22;7362;50.956;4.184;2022-09-20T07:03:45;11.70;99.90
14551;DHT22;7362;50.956;4.184;2022-09-20T07:06:11;11.70;99.90
14551;DHT22;7362;50.956;4.184;2022-09-20T07:08:40;11.80;99.90
14551;DHT22;7362;50.956;4.184;2022-09-20T07:11:14;11.90;99.90
14551;DHT22;7362;50.956;4.184;2022-09-20T07:13:44;12.00;99.90
14551;DHT22;7362;50.956;4.184;2022-09-20T07:16:14;12.00;99.90
14551;DHT22;7362;50.956;4.184;2022-09-20T07:18:40;11.90;99.90
14551;DHT22;7362;50.956;4.184;2022-09-20T07:21:14;12.10;99.90
14551;DHT22;7362;50.956;4.184;2022-09-20T07:23:40;12.10;99.90
14551;DHT22;7362;50.956;4.184;2022-09-20T07:26:24;12.10;99.90
14551;DHT22;7362;50.956;4.184;2022-09-20T07:28:51;12.10;99.90
14551;DHT22;7362;50.956;4.184;2022-09-20T07:31:20;12.00;99.90
14551;DHT22;7362;50.956;4.184;2022-09-20T07:33:46;12.30;99.90
14551;DHT22;7362;50.956;4.184;2022-09-20T07:36:12;12.20;99.90
14551;DHT22;7362;50.956;4.184;2022-09-20T07:38:38;12.30;99.90
14551;DHT22;7362;50.956;4.184;2022-09-20T07:41:04;12.30;99.90
14551;DHT22;7362;50.956;4.184;2022-09-20T07:43:30;12.30;99.90
14551;DHT22;7362;50.956;4.184;2022-09-20T07:45:57;12.40;99.90
14551;DHT22;7362;50.956;4.184;2022-09-20T07:48:29;12.50;99.90
14551;DHT22;7362;50.956;4.184;2022-09-20T07:50:57;12.60;99.90
14551;DHT22;7362;50.956;4.184;2022-09-20T07:53:23;12.60;99.90
14551;DHT22;7362;50.956;4.184;2022-09-20T07:56:01;12.60;99.90
14551;DHT22;7362;50.956;4.184;2022-09-20T07:58:29;12.60;99.90
14551;DHT22;7362;50.956;4.184;2022-09-20T08:00:58;12.60;99.90
14551;DHT22;7362;50.956;4.184;2022-09-20T08:03:24;12.60;99.90
14551;DHT22;7362;50.956;4.184;2022-09-20T08:05:51;12.80;99.90
14551;DHT22;7362;50.956;4.184;2022-09-20T08:08:18;12.90;99.90
14551;DHT22;7362;50.956;4.184;2022-09-20T08:10:49;13.00;99.90
14551;DHT22;7362;50.956;4.184;2022-09-20T08:13:18;13.10;99.90
14551;DHT22;7362;50.956;4.184;2022-09-20T08:15:48;13.20;99.90
14551;DHT22;7362;50.956;4.184;2022-09-20T08:21:36;13.50;99.90
14551;DHT22;7362;50.956;4.184;2022-09-20T08:24:04;13.70;99.90
14551;DHT22;7362;50.956;4.184;2022-09-20T08:26:31;13.90;99.90
14551;DHT22;7362;50.956;4.184;2022-09-20T08:28:58;14.10;99.90
14551;DHT22;7362;50.956;4.184;2022-09-20T08:31:27;14.40;99.90
14551;DHT22;7362;50.956;4.184;2022-09-20T08:33:56;14.70;99.90
14551;DHT22;7362;50.956;4.184;2022-09-20T08:36:24;14.80;99.90
14551;DHT22;7362;50.956;4.184;2022-09-20T08:38:51;15.20;99.90
14551;DHT22;7362;50.956;4.184;2022-09-20T08:44:10;15.50;99.90
14551;DHT22;7362;50.956;4.184;2022-09-20T08:46:42;15.50;99.90
14551;DHT22;7362;50.956;4.184;2022-09-20T08:49:14;15.60;99.90
14551;DHT22;7362;50.956;4.184;2022-09-20T08:51:41;15.80;99.90
14551;DHT22;7362;50.956;4.184;2022-09-20T08:54:11;15.80;99.90
14551;DHT22;7362;50.956;4.184;2022-09-20T08:56:40;15.90;99.90
14551;DHT22;7362;50.956;4.184;2022-09-20T08:59:14;15.80;99.90
14551;DHT22;7362;50.956;4.184;2022-09-20T09:01:40;15.90;99.90
14551;DHT22;7362;50.956;4.184;2022-09-20T09:04:20;16.20;99.90
14551;DHT22;7362;50.956;4.184;2022-09-20T09:06:49;16.40;99.90
14551;DHT22;7362;50.956;4.184;2022-09-20T09:09:26;16.60;99.90
14551;DHT22;7362;50.956;4.184;2022-09-20T09:11:54;16.60;99.90
14551;DHT22;7362;50.956;4.184;2022-09-20T09:17:04;16.80;99.90
14551;DHT22;7362;50.956;4.184;2022-09-20T09:19:32;16.80;99.90
14551;DHT22;7362;50.956;4.184;2022-09-20T09:22:07;16.50;99.90
14551;DHT22;7362;50.956;4.184;2022-09-20T09:24:33;16.30;99.90
14551;DHT22;7362;50.956;4.184;2022-09-20T09:27:18;16.40;99.90
14551;DHT22;7362;50.956;4.184;2022-09-20T09:29:54;16.20;99.90
14551;DHT22;7362;50.956;4.184;2022-09-20T09:32:27;16.60;99.90
14551;DHT22;7362;50.956;4.184;2022-09-20T09:34:54;17.00;99.90
14551;DHT22;7362;50.956;4.184;2022-09-20T09:37:25;17.30;99.90
14551;DHT22;7362;50.956;4.184;2022-09-20T09:40:17;17.60;99.90
14551;DHT22;7362;50.956;4.184;2022-09-20T09:45:35;17.50;99.90
14551;DHT22;7362;50.956;4.184;2022-09-20T09:48:19;17.50;99.90
14551;DHT22;7362;50.956;4.184;2022-09-20T09:50:45;17.20;99.90
14551;DHT22;7362;50.956;4.184;2022-09-20T09:53:15;17.10;99.90
14551;DHT22;7362;50.956;4.184;2022-09-20T10:01:26;17.30;99.90
14551;DHT22;7362;50.956;4.184;2022-09-20T10:07:16;17.30;99.90
14551;DHT22;7362;50.956;4.184;2022-09-20T10:12:35;17.30;99.90
14551;DHT22;7362;50.956;4.184;2022-09-20T10:15:27;17.20;99.90
14551;DHT22;7362;50.956;4.184;2022-09-20T10:21:11;17.60;99.90
14551;DHT22;7362;50.956;4.184;2022-09-20T10:29:30;18.10;99.90
14551;DHT22;7362;50.956;4.184;2022-09-20T10:32:41;18.10;99.90
14551;DHT22;7362;50.956;4.184;2022-09-20T10:35:23;18.00;99.90
14551;DHT22;7362;50.956;4.184;2022-09-20T10:47:18;17.30;99.90
14551;DHT22;7362;50.956;4.184;2022-09-20T11:08:14;16.20;99.90
14551;DHT22;7362;50.956;4.184;2022-09-20T11:10:51;16.20;99.90
14551;DHT22;7362;50.956;4.184;2022-09-20T11:13:49;16.20;99.90
14551;DHT22;7362;50.956;4.184;2022-09-20T11:16:39;16.30;99.90
14551;DHT22;7362;50.956;4.184;2022-09-20T11:19:23;16.40;99.90
14551;DHT22;7362;50.956;4.184;2022-09-20T11:25:23;16.50;99.90
14551;DHT22;7362;50.956;4.184;2022-09-20T11:31:44;16.50;99.90
14551;DHT22;7362;50.956;4.184;2022-09-20T11:41:57;17.40;99.90
14551;DHT22;7362;50.956;4.184;2022-09-20T11:44:25;17.60;99.90
14551;DHT22;7362;50.956;4.184;2022-09-20T11:46:57;17.90;99.90
14551;DHT22;7362;50.956;4.184;2022-09-20T11:49:53;18.20;99.90
14551;DHT22;7362;50.956;4.184;2022-09-20T11:55:16;18.30;99.90
14551;DHT22;7362;50.956;4.184;2022-09-20T11:57:58;18.30;99.90
14551;DHT22;7362;50.956;4.184;2022-09-20T12:00:35;18.20;99.90
14551;DHT22;7362;50.956;4.184;2022-09-20T12:03:04;18.20;99.90
14551;DHT22;7362;50.956;4.184;2022-09-20T12:05:40;18.10;99.90
14551;DHT22;7362;50.956;4.184;2022-09-20T12:08:35;18.10;99.90
14551;DHT22;7362;50.956;4.184;2022-09-20T12:11:03;18.00;99.90
14551;DHT22;7362;50.956;4.184;2022-09-20T12:13:31;18.30;99.90
14551;DHT22;7362;50.956;4.184;2022-09-20T12:16:08;18.50;99.90
14551;DHT22;7362;50.956;4.184;2022-09-20T12:21:24;18.80;99.90
14551;DHT22;7362;50.956;4.184;2022-09-20T12:41:20;19.30;99.90
14551;DHT22;7362;50.956;4.184;2022-09-20T12:44:05;19.00;99.90
14551;DHT22;7362;50.956;4.184;2022-09-20T12:46:54;19.20;99.90
14551;DHT22;7362;50.956;4.184;2022-09-20T12:55:52;19.50;99.90
14551;DHT22;7362;50.956;4.184;2022-09-20T13:03:38;19.00;99.90
14551;DHT22;7362;50.956;4.184;2022-09-20T13:11:28;18.30;99.90
14551;DHT22;7362;50.956;4.184;2022-09-20T13:17:36;18.00;99.90
14551;DHT22;7362;50.956;4.184;2022-09-20T13:20:24;17.90;99.90
14551;DHT22;7362;50.956;4.184;2022-09-20T13:23:02;17.90;99.90
14551;DHT22;7362;50.956;4.184;2022-09-20T13:25:34;18.00;99.90
14551;DHT22;7362;50.956;4.184;2022-09-20T13:28:46;17.80;99.90
14551;DHT22;7362;50.956;4.184;2022-09-20T13:31:25;17.70;99.90
14551;DHT22;7362;50.956;4.184;2022-09-20T13:34:28;17.60;99.90
14551;DHT22;7362;50.956;4.184;2022-09-20T13:36:55;17.50;99.90
14551;DHT22;7362;50.956;4.184;2022-09-20T13:39:33;17.60;99.90
14551;DHT22;7362;50.956;4.184;2022-09-20T13:42:14;17.70;99.90
14551;DHT22;7362;50.956;4.184;2022-09-20T13:44:44;17.90;99.90
14551;DHT22;7362;50.956;4.184;2022-09-20T13:47:30;18.00;99.90
14551;DHT22;7362;50.956;4.184;2022-09-20T13:52:57;17.90;99.90
14551;DHT22;7362;50.956;4.184;2022-09-20T13:59:04;17.80;99.90
14551;DHT22;7362;50.956;4.184;2022-09-20T14:01:36;17.80;99.90
14551;DHT22;7362;50.956;4.184;2022-09-20T14:04:24;18.00;99.90
14551;DHT22;7362;50.956;4.184;2022-09-20T14:06:54;18.30;99.90
14551;DHT22;7362;50.956;4.184;2022-09-20T14:09:34;18.30;99.90
14551;DHT22;7362;50.956;4.184;2022-09-20T14:12:03;18.40;99.90
14551;DHT22;7362;50.956;4.184;2022-09-20T14:14:32;18.20;99.90
14551;DHT22;7362;50.956;4.184;2022-09-20T14:17:03;18.20;99.90
14551;DHT22;7362;50.956;4.184;2022-09-20T14:19:41;18.20;99.90
14551;DHT22;7362;50.956;4.184;2022-09-20T14:22:20;18.30;99.90
14551;DHT22;7362;50.956;4.184;2022-09-20T14:27:40;17.90;99.90
14551;DHT22;7362;50.956;4.184;2022-09-20T14:30:26;17.90;99.90
14551;DHT22;7362;50.956;4.184;2022-09-20T14:32:56;17.70;99.90
14551;DHT22;7362;50.956;4.184;2022-09-20T14:35:22;17.80;99.90
14551;DHT22;7362;50.956;4.184;2022-09-20T14:38:09;17.70;99.90
14551;DHT22;7362;50.956;4.184;2022-09-20T14:40:46;17.60;99.90
14551;DHT22;7362;50.956;4.184;2022-09-20T14:43:46;17.60;99.90
14551;DHT22;7362;50.956;4.184;2022-09-20T14:46:19;17.60;99.90
14551;DHT22;7362;50.956;4.184;2022-09-20T14:48:54;17.50;99.90
14551;DHT22;7362;50.956;4.184;2022-09-20T14:51:43;17.50;99.90
14551;DHT22;7362;50.956;4.184;2022-09-20T14:56:47;17.60;99.90
14551;DHT22;7362;50.956;4.184;2022-09-20T14:59:35;17.70;99.90
14551;DHT22;7362;50.956;4.184;2022-09-20T15:02:12;17.80;99.90
14551;DHT22;7362;50.956;4.184;2022-09-20T15:04:41;17.80;99.90
14551;DHT22;7362;50.956;4.184;2022-09-20T15:07:18;18.00;99.90
14551;DHT22;7362;50.956;4.184;2022-09-20T15:09:46;17.90;99.90
14551;DHT22;7362;50.956;4.184;2022-09-20T15:12:16;17.60;99.90
14551;DHT22;7362;50.956;4.184;2022-09-20T15:14:42;17.40;99.90
14551;DHT22;7362;50.956;4.184;2022-09-20T15:17:16;17.30;99.90
14551;DHT22;7362;50.956;4.184;2022-09-20T15:19:46;17.30;99.90
14551;DHT22;7362;50.956;4.184;2022-09-20T15:22:13;17.50;99.90
14551;DHT22;7362;50.956;4.184;2022-09-20T15:24:41;17.30;99.90
14551;DHT22;7362;50.956;4.184;2022-09-20T15:27:08;17.20;99.90
14551;DHT22;7362;50.956;4.184;2022-09-20T15:29:35;17.10;99.90
14551;DHT22;7362;50.956;4.184;2022-09-20T15:32:01;17.00;99.90
14551;DHT22;7362;50.956;4.184;2022-09-20T15:34:31;16.90;99.90
14551;DHT22;7362;50.956;4.184;2022-09-20T15:36:57;17.10;99.90
14551;DHT22;7362;50.956;4.184;2022-09-20T15:39:22;17.10;99.90
14551;DHT22;7362;50.956;4.184;2022-09-20T15:41:52;17.10;99.90
14551;DHT22;7362;50.956;4.184;2022-09-20T15:44:19;17.00;99.90
14551;DHT22;7362;50.956;4.184;2022-09-20T15:46:45;16.90;99.90
14551;DHT22;7362;50.956;4.184;2022-09-20T15:49:13;16.80;99.90
14551;DHT22;7362;50.956;4.184;2022-09-20T15:51:40;16.80;99.90
14551;DHT22;7362;50.956;4.184;2022-09-20T15:54:12;16.70;99.90
14551;DHT22;7362;50.956;4.184;2022-09-20T15:56:39;16.80;99.90
14551;DHT22;7362;50.956;4.184;2022-09-20T15:59:10;16.90;99.90
14551;DHT22;7362;50.956;4.184;2022-09-20T16:01:38;16.90;99.90
14551;DHT22;7362;50.956;4.184;2022-09-20T16:04:11;16.70;99.90
14551;DHT22;7362;50.956;4.184;2022-09-20T16:06:40;16.60;99.90
14551;DHT22;7362;50.956;4.184;2022-09-20T16:09:06;16.60;99.90
14551;DHT22;7362;50.956;4.184;2022-09-20T16:11:33;16.40;99.90
14551;DHT22;7362;50.956;4.184;2022-09-20T16:14:02;16.30;99.90
14551;DHT22;7362;50.956;4.184;2022-09-20T16:16:32;16.10;99.90
14551;DHT22;7362;50.956;4.184;2022-09-20T16:19:00;16.00;99.90
14551;DHT22;7362;50.956;4.184;2022-09-20T16:21:44;15.90;99.90
14551;DHT22;7362;50.956;4.184;2022-09-20T16:24:18;16.00;99.90
14551;DHT22;7362;50.956;4.184;2022-09-20T16:26:47;15.90;99.90
14551;DHT22;7362;50.956;4.184;2022-09-20T16:29:13;16.00;99.90
14551;DHT22;7362;50.956;4.184;2022-09-20T16:34:30;15.90;99.90
14551;DHT22;7362;50.956;4.184;2022-09-20T16:37:16;15.90;99.90
14551;DHT22;7362;50.956;4.184;2022-09-20T16:39:42;15.90;99.90
14551;DHT22;7362;50.956;4.184;2022-09-20T16:42:10;15.70;99.90
14551;DHT22;7362;50.956;4.184;2022-09-20T16:44:40;15.70;99.90
14551;DHT22;7362;50.956;4.184;2022-09-20T16:47:11;15.70;99.90
14551;DHT22;7362;50.956;4.184;2022-09-20T16:49:38;15.80;99.90
14551;DHT22;7362;50.956;4.184;2022-09-20T16:52:07;15.70;99.90
14551;DHT22;7362;50.956;4.184;2022-09-20T16:54:33;15.90;99.90
14551;DHT22;7362;50.956;4.184;2022-09-20T16:57:00;15.80;99.90
14551;DHT22;7362;50.956;4.184;2022-09-20T16:59:27;15.80;99.90
14551;DHT22;7362;50.956;4.184;2022-09-20T17:01:52;15.80;99.90
14551;DHT22;7362;50.956;4.184;2022-09-20T17:04:18;15.80;99.90
14551;DHT22;7362;50.956;4.184;2022-09-20T17:06:47;15.80;99.90
14551;DHT22;7362;50.956;4.184;2022-09-20T17:09:15;15.60;99.90
14551;DHT22;7362;50.956;4.184;2022-09-20T17:11:46;15.60;99.90
14551;DHT22;7362;50.956;4.184;2022-09-20T17:14:17;15.50;99.90
14551;DHT22;7362;50.956;4.184;2022-09-20T17:16:43;15.50;99.90
14551;DHT22;7362;50.956;4.184;2022-09-20T17:19:13;15.50;99.90
14551;DHT22;7362;50.956;4.184;2022-09-20T17:21:42;15.50;99.90
14551;DHT22;7362;50.956;4.184;2022-09-20T17:24:09;15.60;99.90
14551;DHT22;7362;50.956;4.184;2022-09-20T17:26:37;15.50;99.90
14551;DHT22;7362;50.956;4.184;2022-09-20T17:29:08;15.30;99.90
14551;DHT22;7362;50.956;4.184;2022-09-20T17:31:39;15.30;99.90
14551;DHT22;7362;50.956;4.184;2022-09-20T17:34:07;15.30;99.90
14551;DHT22;7362;50.956;4.184;2022-09-20T17:36:39;15.20;99.90
14551;DHT22;7362;50.956;4.184;2022-09-20T17:39:06;15.10;99.90
14551;DHT22;7362;50.956;4.184;2022-09-20T17:41:36;15.10;99.90
14551;DHT22;7362;50.956;4.184;2022-09-20T17:44:03;15.10;99.90
14551;DHT22;7362;50.956;4.184;2022-09-20T17:46:44;14.90;99.90
14551;DHT22;7362;50.956;4.184;2022-09-20T17:49:21;15.00;99.90
14551;DHT22;7362;50.956;4.184;2022-09-20T17:51:49;14.90;99.90
14551;DHT22;7362;50.956;4.184;2022-09-20T17:54:16;14.90;99.90
14551;DHT22;7362;50.956;4.184;2022-09-20T17:56:44;14.80;99.90
14551;DHT22;7362;50.956;4.184;2022-09-20T17:59:13;14.80;99.90
14551;DHT22;7362;50.956;4.184;2022-09-20T18:01:48;14.80;99.90
14551;DHT22;7362;50.956;4.184;2022-09-20T18:04:14;14.70;99.90
14551;DHT22;7362;50.956;4.184;2022-09-20T18:06:45;14.70;99.90
14551;DHT22;7362;50.956;4.184;2022-09-20T18:09:18;14.70;99.90
14551;DHT22;7362;50.956;4.184;2022-09-20T18:11:48;14.80;99.90
14551;DHT22;7362;50.956;4.184;2022-09-20T18:14:19;14.80;99.90
14551;DHT22;7362;50.956;4.184;2022-09-20T18:16:54;14.70;99.90
14551;DHT22;7362;50.956;4.184;2022-09-20T18:19:23;14.70;99.90
14551;DHT22;7362;50.956;4.184;2022-09-20T18:21:49;14.70;99.90
14551;DHT22;7362;50.956;4.184;2022-09-20T18:24:17;14.70;99.90
14551;DHT22;7362;50.956;4.184;2022-09-20T18:26:44;14.60;99.90
14551;DHT22;7362;50.956;4.184;2022-09-20T18:29:15;14.60;99.90
14551;DHT22;7362;50.956;4.184;2022-09-20T18:31:49;14.60;99.90
14551;DHT22;7362;50.956;4.184;2022-09-20T18:34:19;14.60;99.90
14551;DHT22;7362;50.956;4.184;2022-09-20T18:36:53;14.60;99.90
14551;DHT22;7362;50.956;4.184;2022-09-20T18:39:30;14.60;99.90
14551;DHT22;7362;50.956;4.184;2022-09-20T18:42:02;14.60;99.90
14551;DHT22;7362;50.956;4.184;2022-09-20T18:44:37;14.50;99.90
14551;DHT22;7362;50.956;4.184;2022-09-20T18:47:04;14.50;99.90
14551;DHT22;7362;50.956;4.184;2022-09-20T18:49:30;14.50;99.90
14551;DHT22;7362;50.956;4.184;2022-09-20T18:52:01;14.50;99.90
14551;DHT22;7362;50.956;4.184;2022-09-20T18:54:33;14.50;99.90
14551;DHT22;7362;50.956;4.184;2022-09-20T18:57:00;14.40;99.90
14551;DHT22;7362;50.956;4.184;2022-09-20T18:59:29;14.20;99.90
14551;DHT22;7362;50.956;4.184;2022-09-20T19:02:17;14.40;99.90
14551;DHT22;7362;50.956;4.184;2022-09-20T19:05:02;14.30;99.90
14551;DHT22;7362;50.956;4.184;2022-09-20T19:08:03;14.30;99.90
14551;DHT22;7362;50.956;4.184;2022-09-20T19:10:48;14.20;99.90
14551;DHT22;7362;50.956;4.184;2022-09-20T19:13:47;14.10;99.90
14551;DHT22;7362;50.956;4.184;2022-09-20T19:16:28;14.10;99.90
14551;DHT22;7362;50.956;4.184;2022-09-20T19:22:11;14.00;99.90
14551;DHT22;7362;50.956;4.184;2022-09-20T19:27:41;13.90;99.90
14551;DHT22;7362;50.956;4.184;2022-09-20T19:30:15;13.80;99.90
14551;DHT22;7362;50.956;4.184;2022-09-20T19:32:42;13.70;99.90
14551;DHT22;7362;50.956;4.184;2022-09-20T19:35:20;13.60;99.90
14551;DHT22;7362;50.956;4.184;2022-09-20T19:41:13;13.70;99.90
14551;DHT22;7362;50.956;4.184;2022-09-20T19:46:49;13.60;99.90
14551;DHT22;7362;50.956;4.184;2022-09-20T19:50:02;13.70;99.90
14551;DHT22;7362;50.956;4.184;2022-09-20T19:52:29;13.70;99.90
14551;DHT22;7362;50.956;4.184;2022-09-20T19:54:57;13.60;99.90
14551;DHT22;7362;50.956;4.184;2022-09-20T19:57:34;13.70;99.90
14551;DHT22;7362;50.956;4.184;2022-09-20T20:00:04;13.70;99.90
14551;DHT22;7362;50.956;4.184;2022-09-20T20:02:34;13.80;99.90
14551;DHT22;7362;50.956;4.184;2022-09-20T20:05:01;13.90;99.90
14551;DHT22;7362;50.956;4.184;2022-09-20T20:07:54;13.90;99.90
14551;DHT22;7362;50.956;4.184;2022-09-20T20:10:27;13.90;99.90
14551;DHT22;7362;50.956;4.184;2022-09-20T20:13:09;13.90;99.90
14551;DHT22;7362;50.956;4.184;2022-09-20T20:16:03;14.00;99.90
14551;DHT22;7362;50.956;4.184;2022-09-20T20:20:59;13.60;99.90
14551;DHT22;7362;50.956;4.184;2022-09-20T20:23:47;13.70;99.90
14551;DHT22;7362;50.956;4.184;2022-09-20T20:26:21;13.60;99.90
14551;DHT22;7362;50.956;4.184;2022-09-20T20:28:47;13.70;99.90
14551;DHT22;7362;50.956;4.184;2022-09-20T20:31:13;13.60;99.90
14551;DHT22;7362;50.956;4.184;2022-09-20T20:33:39;13.70;99.90
14551;DHT22;7362;50.956;4.184;2022-09-20T20:36:05;13.70;99.90
14551;DHT22;7362;50.956;4.184;2022-09-20T20:38:37;13.70;99.90
14551;DHT22;7362;50.956;4.184;2022-09-20T20:41:15;13.70;99.90
14551;DHT22;7362;50.956;4.184;2022-09-20T20:43:43;13.70;99.90
14551;DHT22;7362;50.956;4.184;2022-09-20T20:46:12;13.60;99.90
14551;DHT22;7362;50.956;4.184;2022-09-20T20:48:39;13.40;99.90
14551;DHT22;7362;50.956;4.184;2022-09-20T20:53:40;13.40;99.90
14551;DHT22;7362;50.956;4.184;2022-09-20T20:56:11;13.30;99.90
14551;DHT22;7362;50.956;4.184;2022-09-20T20:58:39;13.30;99.90
14551;DHT22;7362;50.956;4.184;2022-09-20T21:01:14;13.30;99.90
14551;DHT22;7362;50.956;4.184;2022-09-20T21:03:42;13.20;99.90
14551;DHT22;7362;50.956;4.184;2022-09-20T21:06:11;13.20;99.90
14551;DHT22;7362;50.956;4.184;2022-09-20T21:08:39;13.20;99.90
14551;DHT22;7362;50.956;4.184;2022-09-20T21:11:14;14.50;99.90
14551;DHT22;7362;50.956;4.184;2022-09-20T21:13:46;13.20;99.90
14551;DHT22;7362;50.956;4.184;2022-09-20T21:16:16;13.20;99.90
14551;DHT22;7362;50.956;4.184;2022-09-20T21:18:45;13.20;99.90
14551;DHT22;7362;50.956;4.184;2022-09-20T21:21:22;13.10;99.90
14551;DHT22;7362;50.956;4.184;2022-09-20T21:23:52;13.20;99.90
14551;DHT22;7362;50.956;4.184;2022-09-20T21:26:19;13.10;99.90
14551;DHT22;7362;50.956;4.184;2022-09-20T21:28:51;13.10;99.90
14551;DHT22;7362;50.956;4.184;2022-09-20T21:31:18;13.00;99.90
14551;DHT22;7362;50.956;4.184;2022-09-20T21:33:44;13.00;99.90
14551;DHT22;7362;50.956;4.184;2022-09-20T21:36:12;13.10;99.90
14551;DHT22;7362;50.956;4.184;2022-09-20T21:38:42;13.10;99.90
14551;DHT22;7362;50.956;4.184;2022-09-20T21:41:23;13.10;99.90
14551;DHT22;7362;50.956;4.184;2022-09-20T21:43:54;13.00;99.90
14551;DHT22;7362;50.956;4.184;2022-09-20T21:46:25;13.00;99.90
14551;DHT22;7362;50.956;4.184;2022-09-20T21:48:59;12.90;99.90
14551;DHT22;7362;50.956;4.184;2022-09-20T21:51:26;12.70;99.90
14551;DHT22;7362;50.956;4.184;2022-09-20T21:53:55;12.70;99.90
14551;DHT22;7362;50.956;4.184;2022-09-20T21:56:24;12.50;99.90
14551;DHT22;7362;50.956;4.184;2022-09-20T21:58:52;12.50;99.90
14551;DHT22;7362;50.956;4.184;2022-09-20T22:01:29;12.50;99.90
14551;DHT22;7362;50.956;4.184;2022-09-20T22:03:58;12.50;99.90
14551;DHT22;7362;50.956;4.184;2022-09-20T22:06:30;12.50;99.90
14551;DHT22;7362;50.956;4.184;2022-09-20T22:09:00;12.50;99.90
14551;DHT22;7362;50.956;4.184;2022-09-20T22:11:28;12.50;99.90
14551;DHT22;7362;50.956;4.184;2022-09-20T22:14:04;13.80;99.90
14551;DHT22;7362;50.956;4.184;2022-09-20T22:16:33;12.60;99.90
14551;DHT22;7362;50.956;4.184;2022-09-20T22:19:00;12.70;99.90
14551;DHT22;7362;50.956;4.184;2022-09-20T22:21:32;12.60;99.90
14551;DHT22;7362;50.956;4.184;2022-09-20T22:24:05;12.50;99.90
14551;DHT22;7362;50.956;4.184;2022-09-20T22:26:54;12.50;99.90
14551;DHT22;7362;50.956;4.184;2022-09-20T22:29:23;12.50;99.90
14551;DHT22;7362;50.956;4.184;2022-09-20T22:31:50;12.50;99.90
14551;DHT22;7362;50.956;4.184;2022-09-20T22:34:18;12.50;99.90
14551;DHT22;7362;50.956;4.184;2022-09-20T22:36:46;12.40;99.90
14551;DHT22;7362;50.956;4.184;2022-09-20T22:39:13;12.30;99.90